Time;durP1;ratioP1;P1;durP2;ratioP2;P2;SDS_P1;SDS_P2;PMS_P1;PMS_P2;Temp;Humidity;BMP_temperature;BMP_pressure;BME280_temperature;BME280_humidity;BME280_pressure;Samples;Min_cycle;Max_cycle;Signal;HPM_P1;HPM_P2
2023/09/24 00:00:47;;;;;;;16.75;10.05;;;;;;;20.39;100.00;99325.91;5179354;27;20066;-61
2023/09/24 00:03:14;;;;;;;13.07;6.88;;;;;;;20.43;100.00;99334.97;5179149;27;20446;-60
2023/09/24 00:05:40;;;;;;;8.82;6.53;;;;;;;20.48;100.00;99318.97;5179345;27;20046;-60
2023/09/24 00:08:07;;;;;;;12.50;8.57;;;;;;;20.43;100.00;99334.97;5178878;27;20561;-60
2023/09/24 00:10:32;;;;;;;15.88;8.43;;;;;;;20.30;100.00;99372.22;5179224;27;20057;-63
2023/09/24 00:12:59;;;;;;;11.43;8.77;;;;;;;20.20;100.00;99397.03;5178835;27;20316;-62
2023/09/24 00:15:27;;;;;;;13.68;7.13;;;;;;;20.39;100.00;99381.59;5179229;27;20050;-63
2023/09/24 00:17:53;;;;;;;11.48;8.98;;;;;;;20.43;100.00;99373.16;5178744;27;20414;-61
2023/09/24 00:20:19;;;;;;;13.95;7.10;;;;;;;20.44;100.00;99369.94;5179285;27;20047;-60
2023/09/24 00:22:47;;;;;;;20.95;9.10;;;;;;;20.34;100.00;99398.00;5178615;27;20133;-62
2023/09/24 00:25:14;;;;;;;9.93;8.05;;;;;;;20.33;100.00;99427.03;5178941;27;20073;-61
2023/09/24 00:27:40;;;;;;;14.90;10.18;;;;;;;20.29;100.00;99443.00;5182586;27;20057;-62
2023/09/24 00:30:09;;;;;;;15.70;7.70;;;;;;;20.15;100.00;99463.53;5182635;27;20078;-61
2023/09/24 00:32:35;;;;;;;10.40;6.90;;;;;;;20.01;100.00;99481.22;5182942;27;20137;-63
2023/09/24 00:35:01;;;;;;;19.70;7.50;;;;;;;20.05;100.00;99517.34;5182462;27;20057;-63
2023/09/24 00:37:28;;;;;;;17.10;7.72;;;;;;;20.13;100.00;99519.63;5182532;27;20050;-61
2023/09/24 00:39:54;;;;;;;22.42;7.95;;;;;;;20.14;100.00;99521.19;5182168;27;20313;-64
2023/09/24 00:42:19;;;;;;;18.13;8.57;;;;;;;20.14;100.00;99506.50;5182574;27;20145;-64
2023/09/24 00:44:45;;;;;;;16.52;8.50;;;;;;;20.14;100.00;99514.84;5182280;27;20077;-63
2023/09/24 00:47:12;;;;;;;16.27;7.88;;;;;;;20.13;100.00;99525.19;5182631;27;20050;-62
2023/09/24 00:49:38;;;;;;;26.60;9.23;;;;;;;20.19;100.00;99522.69;5182179;27;20304;-61
2023/09/24 00:52:04;;;;;;;15.40;7.88;;;;;;;20.19;100.00;99504.03;5182534;27;20399;-62
2023/09/24 00:54:31;;;;;;;15.77;10.57;;;;;;;20.18;100.00;99515.56;5182026;27;20057;-63
2023/09/24 00:56:58;;;;;;;12.75;7.18;;;;;;;20.15;100.00;99505.28;5182125;27;20090;-62
2023/09/24 00:59:25;;;;;;;17.88;8.00;;;;;;;20.18;100.00;99515.56;5182034;27;20054;-62
2023/09/24 01:01:51;;;;;;;12.65;8.13;;;;;;;20.02;100.00;99516.19;5182056;27;20050;-64
2023/09/24 01:04:18;;;;;;;16.92;8.15;;;;;;;20.10;100.00;99522.47;5182351;27;20046;-61
2023/09/24 01:06:44;;;;;;;15.10;7.78;;;;;;;20.11;100.00;99522.03;5181916;27;20152;-61
2023/09/24 01:09:12;;;;;;;15.40;7.15;;;;;;;20.06;100.00;99527.28;5182187;27;20050;-64
2023/09/24 01:11:38;;;;;;;15.32;8.52;;;;;;;20.09;100.00;99523.66;5181759;27;20141;-62
2023/09/24 01:14:05;;;;;;;11.70;8.90;;;;;;;20.04;100.00;99513.78;5182111;27;20384;-63
2023/09/24 01:16:32;;;;;;;17.05;8.23;;;;;;;19.95;100.00;99525.44;5181577;27;20146;-64
2023/09/24 01:18:58;;;;;;;14.63;9.40;;;;;;;20.09;100.00;99524.47;5182186;27;20042;-61
2023/09/24 01:21:26;;;;;;;20.73;8.38;;;;;;;20.09;100.00;99523.66;5181885;27;20110;-63
2023/09/24 01:23:52;;;;;;;17.75;10.70;;;;;;;20.07;100.00;99526.88;5181758;27;20050;-63
2023/09/24 01:26:19;;;;;;;14.95;8.95;;;;;;;20.01;100.00;99528.53;5181759;27;20050;-64
2023/09/24 01:28:45;;;;;;;13.60;7.40;;;;;;;19.94;100.00;99535.00;5181435;27;20453;-64
2023/09/24 01:31:11;;;;;;;20.17;8.93;;;;;;;19.92;100.00;99542.19;5181552;27;20046;-65
2023/09/24 01:33:39;;;;;;;12.60;8.60;;;;;;;20.07;100.00;99543.56;5181597;27;20050;-61
2023/09/24 01:36:05;;;;;;;18.85;8.52;;;;;;;20.10;100.00;99542.72;5181669;27;20099;-63
2023/09/24 01:38:32;;;;;;;15.30;11.32;;;;;;;20.06;100.00;99535.63;5181184;27;20046;-64
2023/09/24 01:40:59;;;;;;;18.80;9.63;;;;;;;20.05;100.00;99543.19;5181694;27;20073;-60
2023/09/24 01:43:25;;;;;;;17.17;8.82;;;;;;;20.03;100.00;99553.19;5181281;27;20054;-62
2023/09/24 01:45:51;;;;;;;19.98;8.13;;;;;;;20.05;100.00;99557.09;5181681;27;20054;-64
2023/09/24 01:48:17;;;;;;;10.48;9.13;;;;;;;19.98;100.00;99571.91;5181059;27;20438;-64
2023/09/24 01:50:43;;;;;;;7.72;4.95;;;;;;;19.79;100.00;99583.69;5181344;27;20072;-61
2023/09/24 01:53:10;;;;;;;5.30;4.50;;;;;;;19.63;100.00;99577.94;5181369;27;20370;-62
2023/09/24 01:55:36;;;;;;;5.60;4.25;;;;;;;19.79;100.00;99582.91;5181256;27;20142;-62
2023/09/24 01:58:03;;;;;;;7.40;3.25;;;;;;;19.52;100.00;99586.38;5181243;27;20050;-62
2023/09/24 02:00:29;;;;;;;3.10;2.63;;;;;;;19.42;100.00;99590.84;5181006;27;20390;-60
2023/09/24 02:02:57;;;;;;;4.43;2.42;;;;;;;19.57;100.00;99587.94;5181120;27;20544;-63
2023/09/24 02:05:24;;;;;;;2.90;2.70;;;;;;;19.57;100.00;99574.03;5180991;27;20042;-61
2023/09/24 02:07:50;;;;;;;2.40;2.22;;;;;;;19.20;100.00;99586.75;5181271;27;20058;-62
2023/09/24 02:10:18;;;;;;;3.20;2.90;;;;;;;19.30;100.00;99604.53;5180855;27;20050;-62
2023/09/24 02:12:45;;;;;;;2.25;1.90;;;;;;;19.48;100.00;99596.75;5181286;27;20057;-61
2023/09/24 02:15:12;;;;;;;2.50;2.33;;;;;;;19.45;100.00;99603.16;5180782;27;20053;-60
2023/09/24 02:17:40;;;;;;;2.63;2.10;;;;;;;19.39;100.00;99610.34;5181063;27;20069;-62
2023/09/24 02:20:21;;;;;;;3.05;2.35;;;;;;;19.45;100.00;99605.94;5180998;27;20053;-61
2023/09/24 02:22:48;;;;;;;2.50;1.98;;;;;;;19.39;100.00;99604.78;5180793;27;20129;-61
2023/09/24 02:25:15;;;;;;;2.30;2.03;;;;;;;19.33;100.00;99612.03;5180751;27;20050;-64
2023/09/24 02:27:41;;;;;;;1.90;1.80;;;;;;;19.26;100.00;99616.47;5180673;27;20388;-61
2023/09/24 02:30:08;;;;;;;3.08;1.90;;;;;;;19.01;100.00;99621.47;5180928;27;20046;-60
2023/09/24 02:32:34;;;;;;;2.38;1.90;;;;;;;18.79;100.00;99616.09;5180507;27;20360;-64
2023/09/24 02:35:00;;;;;;;2.20;2.10;;;;;;;18.92;100.00;99608.03;5180868;27;20383;-63
2023/09/24 02:37:29;;;;;;;2.63;2.42;;;;;;;18.95;100.00;99621.09;5180283;27;20077;-63
2023/09/24 02:39:55;;;;;;;1.85;1.75;;;;;;;18.95;100.00;99628.66;5180767;27;20050;-63
2023/09/24 02:42:22;;;;;;;2.85;1.70;;;;;;;18.76;100.00;99616.09;5180253;27;20085;-62
2023/09/24 02:44:48;;;;;;;2.08;1.88;;;;;;;18.81;100.00;99616.47;5180515;27;20050;-61
2023/09/24 02:47:15;;;;;;;2.03;1.80;;;;;;;18.72;100.00;99609.81;5180261;27;20381;-64
2023/09/24 02:49:41;;;;;;;2.47;1.83;;;;;;;18.70;100.00;99615.75;5179787;27;20364;-61
2023/09/24 02:52:08;;;;;;;2.22;2.03;;;;;;;18.70;100.00;99618.53;5180417;27;20118;-62
2023/09/24 02:54:34;;;;;;;2.65;2.13;;;;;;;18.66;100.00;99603.88;5180245;27;20136;-63
2023/09/24 02:57:00;;;;;;;1.90;1.70;;;;;;;18.53;100.00;99586.91;5180374;27;20110;-62
2023/09/24 02:59:26;;;;;;;2.70;1.63;;;;;;;18.55;100.00;99576.19;5180125;27;20133;-63
2023/09/24 03:01:52;;;;;;;2.22;1.85;;;;;;;18.67;100.00;99591.56;5180418;27;20319;-64
2023/09/24 03:04:18;;;;;;;1.80;1.65;;;;;;;18.52;100.00;99596.44;5179977;27;20399;-61
2023/09/24 03:06:45;;;;;;;3.03;1.70;;;;;;;18.70;100.00;99607.41;5180391;27;20082;-63
2023/09/24 03:09:12;;;;;;;2.15;1.90;;;;;;;18.82;100.00;99617.25;5179800;27;20110;-61
2023/09/24 03:11:37;;;;;;;2.05;1.60;;;;;;;18.66;100.00;99616.94;5180261;27;20050;-64
2023/09/24 03:14:03;;;;;;;3.58;1.73;;;;;;;18.68;100.00;99617.34;5180057;27;20050;-63
2023/09/24 03:16:30;;;;;;;3.03;1.85;;;;;;;18.66;100.00;99619.72;5179832;27;20137;-61
2023/09/24 03:18:56;;;;;;;1.70;1.60;;;;;;;18.67;100.00;99626.88;5180031;27;20129;-64
2023/09/24 03:21:22;;;;;;;1.92;1.70;;;;;;;18.51;100.00;99608.75;5179794;27;20436;-64
2023/09/24 03:23:48;;;;;;;1.98;1.85;;;;;;;18.59;100.00;99603.91;5179999;27;20137;-63
2023/09/24 03:26:15;;;;;;;2.22;1.90;;;;;;;18.58;100.00;99616.22;5179744;27;20081;-64
2023/09/24 03:28:41;;;;;;;3.88;2.30;;;;;;;18.60;100.00;99594.41;5179835;27;20395;-64
2023/09/24 03:31:12;;;;;;;2.00;1.90;;;;;;;18.55;100.00;99590.06;5179494;27;20053;-64
2023/09/24 03:33:38;;;;;;;2.65;2.05;;;;;;;18.68;100.00;99601.47;5179961;27;20046;-61
2023/09/24 03:36:05;;;;;;;2.17;1.92;;;;;;;18.48;100.00;99592.09;5179467;27;20429;-61
2023/09/24 03:38:31;;;;;;;3.28;2.03;;;;;;;18.57;100.00;99598.78;5179669;27;20061;-64
2023/09/24 03:40:58;;;;;;;2.33;2.10;;;;;;;18.34;100.00;99593.78;5179647;27;20050;-65
2023/09/24 03:43:24;;;;;;;2.58;2.38;;;;;;;18.21;100.00;99559.38;5179495;27;20108;-64
2023/09/24 03:45:50;;;;;;;2.63;2.42;;;;;;;18.21;100.00;99547.50;5179321;27;20478;-63
2023/09/24 03:48:16;;;;;;;2.63;2.08;;;;;;;18.45;100.00;99565.16;5179404;27;20149;-61
2023/09/24 03:50:42;;;;;;;2.60;2.40;;;;;;;18.27;100.00;99571.63;5179546;27;20057;-64
2023/09/24 03:53:08;;;;;;;2.40;2.20;;;;;;;18.33;100.00;99581.13;5179298;27;20129;-60
2023/09/24 03:55:35;;;;;;;4.50;2.10;;;;;;;18.15;100.00;99585.19;5179538;27;20323;-62
2023/09/24 03:58:02;;;;;;;3.80;2.00;;;;;;;18.01;100.00;99603.50;5179113;27;20054;-63
2023/09/24 04:00:31;;;;;;;2.08;1.77;;;;;;;18.10;100.00;99589.19;5178290;27;20073;-60
2023/09/24 04:02:57;;;;;;;2.15;1.88;;;;;;;18.32;100.00;99620.38;5179094;27;20042;-61
2023/09/24 04:05:23;;;;;;;1.92;1.50;;;;;;;18.10;100.00;99612.19;5179510;27;20418;-63
2023/09/24 04:07:51;;;;;;;4.28;2.35;;;;;;;18.21;100.00;99622.44;5178878;27;20065;-61
2023/09/24 04:10:19;;;;;;;2.72;1.77;;;;;;;18.16;100.00;99623.66;5178840;27;20053;-62
2023/09/24 04:12:47;;;;;;;3.10;1.90;;;;;;;18.25;100.00;99651.72;5179207;27;20046;-62
2023/09/24 04:15:18;;;;;;;1.70;1.60;;;;;;;18.09;100.00;99676.38;5178842;27;20046;-61
2023/09/24 04:17:44;;;;;;;1.30;1.20;;;;;;;18.16;100.00;99679.16;5179059;27;20054;-63
2023/09/24 04:20:14;;;;;;;1.00;0.98;;;;;;;18.09;100.00;99693.03;5178965;27;20072;-62
2023/09/24 04:22:40;;;;;;;1.75;1.25;;;;;;;18.24;100.00;99711.22;5179147;27;20057;-63
2023/09/24 04:25:06;;;;;;;1.30;1.20;;;;;;;18.12;100.00;99722.75;5178833;27;20132;-64
2023/09/24 04:27:32;;;;;;;2.97;1.20;;;;;;;18.19;100.00;99744.13;5179012;27;20137;-62
2023/09/24 04:29:58;;;;;;;1.70;1.60;;;;;;;18.02;100.00;99732.69;5178734;27;20046;-60
2023/09/24 04:32:24;;;;;;;1.10;1.10;;;;;;;18.09;100.00;99737.44;5179124;27;20416;-60
2023/09/24 04:34:50;;;;;;;1.27;1.17;;;;;;;18.23;100.00;99744.94;5178549;27;20050;-60
2023/09/24 04:37:17;;;;;;;2.35;1.48;;;;;;;18.20;100.00;99754.06;5178473;27;20463;-64
2023/09/24 04:39:44;;;;;;;1.13;1.02;;;;;;;18.25;100.00;99762.75;5178728;27;20058;-64
2023/09/24 04:42:11;;;;;;;1.25;1.17;;;;;;;18.27;100.00;99765.91;5178510;27;20061;-64
2023/09/24 04:44:38;;;;;;;2.33;1.85;;;;;;;18.22;100.00;99771.06;5178776;27;20042;-61
2023/09/24 04:47:04;;;;;;;2.88;1.20;;;;;;;18.11;100.00;99766.34;5178487;27;20327;-62
2023/09/24 04:49:31;;;;;;;0.93;0.93;;;;;;;18.30;100.00;99765.13;5178751;27;20050;-60
2023/09/24 04:51:57;;;;;;;1.48;1.27;;;;;;;18.04;100.00;99762.81;5178291;27;20137;-60
2023/09/24 04:54:23;;;;;;;2.72;1.52;;;;;;;18.06;100.00;99754.88;5178784;27;20042;-61
2023/09/24 04:56:49;;;;;;;2.10;1.40;;;;;;;18.24;100.00;99755.63;5178159;27;20442;-62
2023/09/24 04:59:15;;;;;;;3.28;1.05;;;;;;;18.04;100.00;99763.59;5178762;27;20132;-63
2023/09/24 05:01:41;;;;;;;1.90;1.20;;;;;;;17.84;100.00;99760.50;5178197;27;20050;-61
2023/09/24 05:04:07;;;;;;;1.20;1.10;;;;;;;17.89;100.00;99759.28;5178701;27;20126;-61
2023/09/24 05:06:34;;;;;;;2.72;1.88;;;;;;;17.96;100.00;99747.38;5178454;27;20099;-60
2023/09/24 05:09:00;;;;;;;3.80;1.40;;;;;;;18.10;100.00;99761.22;5178356;27;20046;-61
2023/09/24 05:11:25;;;;;;;5.35;1.27;;;;;;;17.80;100.00;99758.94;5178442;27;20281;-60
2023/09/24 05:13:52;;;;;;;1.42;1.17;;;;;;;17.75;100.00;99743.44;5181608;27;20042;-61
2023/09/24 05:16:19;;;;;;;1.00;1.00;;;;;;;17.93;100.00;99746.22;5182021;27;20122;-64
2023/09/24 05:18:45;;;;;;;1.20;1.20;;;;;;;17.85;100.00;99752.94;5181592;27;20420;-61
2023/09/24 05:21:14;;;;;;;2.30;1.33;;;;;;;17.87;100.00;99753.34;5181919;27;20050;-62
2023/09/24 05:23:41;;;;;;;2.63;1.40;;;;;;;17.61;100.00;99732.38;5181663;27;20050;-62
2023/09/24 05:26:10;;;;;;;2.47;1.25;;;;;;;17.68;100.00;99734.34;5181860;27;20050;-62
2023/09/24 05:28:37;;;;;;;1.10;1.00;;;;;;;17.85;100.00;99737.09;5181564;27;20054;-62
2023/09/24 05:31:02;;;;;;;1.13;1.00;;;;;;;18.16;100.00;99775.44;5181918;27;20042;-64
2023/09/24 05:33:28;;;;;;;1.13;0.95;;;;;;;18.12;100.00;99786.56;5181690;27;20114;-62
2023/09/24 05:35:54;;;;;;;1.10;1.00;;;;;;;17.70;100.00;99765.25;5181621;27;20133;-61
2023/09/24 05:38:21;;;;;;;1.85;1.00;;;;;;;17.84;100.00;99759.69;5181259;27;20042;-60
2023/09/24 05:40:48;;;;;;;1.23;1.13;;;;;;;17.61;100.00;99773.97;5181395;27;20043;-61
2023/09/24 05:43:14;;;;;;;1.20;1.10;;;;;;;17.94;100.00;99775.53;5181556;27;20042;-63
2023/09/24 05:45:45;;;;;;;0.90;0.90;;;;;;;18.03;100.00;99805.63;5181185;27;20060;-61
2023/09/24 05:48:11;;;;;;;3.28;1.20;;;;;;;18.10;100.00;99808.38;5181521;27;20065;-61
2023/09/24 05:50:37;;;;;;;1.17;0.85;;;;;;;18.08;100.00;99806.00;5181117;27;20050;-60
2023/09/24 05:53:03;;;;;;;1.83;1.00;;;;;;;18.13;100.00;99815.09;5181456;27;20125;-61
2023/09/24 05:55:29;;;;;;;1.58;1.00;;;;;;;18.18;100.00;99818.28;5180915;27;20054;-61
2023/09/24 05:57:56;;;;;;;1.25;0.98;;;;;;;18.30;100.00;99814.28;5181232;27;20073;-60
2023/09/24 06:00:21;;;;;;;1.55;1.05;;;;;;;18.11;100.00;99818.28;5180831;27;20125;-61
2023/09/24 06:02:47;;;;;;;1.08;0.80;;;;;;;18.43;100.00;99829.31;5180872;27;20479;-60
2023/09/24 06:05:13;;;;;;;1.48;1.00;;;;;;;18.44;100.00;99838.44;5181152;27;20078;-60
2023/09/24 06:07:39;;;;;;;0.90;0.90;;;;;;;18.22;100.00;99846.78;5181037;27;20108;-63
2023/09/24 06:10:06;;;;;;;3.90;1.10;;;;;;;18.35;100.00;99847.16;5181005;27;20046;-62
2023/09/24 06:12:32;;;;;;;1.75;1.20;;;;;;;18.34;100.00;99846.38;5180892;27;20042;-60
2023/09/24 06:14:59;;;;;;;3.80;1.00;;;;;;;18.04;100.00;99849.63;5181107;27;20141;-62
2023/09/24 06:17:25;;;;;;;6.53;1.25;;;;;;;18.07;100.00;99848.03;5180688;27;20137;-60
2023/09/24 06:19:51;;;;;;;6.47;1.08;;;;;;;18.49;100.00;99846.31;5180840;27;20137;-62
2023/09/24 06:22:17;;;;;;;1.05;0.90;;;;;;;18.33;100.00;99855.13;5180674;27;20046;-62
2023/09/24 06:24:43;;;;;;;6.85;1.70;;;;;;;18.43;100.00;99850.72;5179884;27;20141;-60
2023/09/24 06:27:09;;;;;;;1.85;1.05;;;;;;;18.37;100.00;99838.44;5180814;27;20505;-61
2023/09/24 06:29:35;;;;;;;1.85;0.90;;;;;;;18.42;100.00;99849.13;5180952;27;20042;-63
2023/09/24 06:32:02;;;;;;;1.42;1.10;;;;;;;18.43;100.00;99853.50;5180656;27;20054;-61
2023/09/24 06:34:28;;;;;;;1.35;1.10;;;;;;;18.23;100.00;99856.72;5180351;27;20426;-60
2023/09/24 06:36:54;;;;;;;1.20;1.20;;;;;;;18.38;100.00;99867.78;5180519;27;20046;-61
2023/09/24 06:39:20;;;;;;;4.47;1.13;;;;;;;18.18;100.00;99871.00;5180303;27;20062;-63
2023/09/24 06:41:46;;;;;;;1.98;1.30;;;;;;;18.30;100.00;99858.69;5180597;27;20091;-64
2023/09/24 06:44:13;;;;;;;1.27;1.13;;;;;;;18.27;100.00;99860.28;5180152;27;20047;-64
2023/09/24 06:46:39;;;;;;;6.18;1.20;;;;;;;18.34;100.00;99868.59;5180550;27;20061;-62
2023/09/24 06:49:06;;;;;;;4.10;1.27;;;;;;;18.62;100.00;99885.56;5180070;27;20042;-59
2023/09/24 06:51:32;;;;;;;1.00;1.00;;;;;;;18.49;100.00;99890.75;5180498;27;20099;-60
2023/09/24 06:53:59;;;;;;;0.95;0.90;;;;;;;18.61;100.00;99895.88;5179901;27;20050;-61
2023/09/24 06:56:25;;;;;;;3.72;1.30;;;;;;;18.39;100.00;99900.69;5180444;27;20311;-62
2023/09/24 06:58:51;;;;;;;1.83;1.15;;;;;;;18.47;100.00;99912.59;5179824;27;20046;-62
2023/09/24 07:01:17;;;;;;;1.00;1.00;;;;;;;18.53;100.00;99900.66;5180042;27;20459;-61
2023/09/24 07:03:43;;;;;;;0.90;0.90;;;;;;;18.55;100.00;99897.47;5179909;27;20053;-60
2023/09/24 07:06:10;;;;;;;3.38;1.02;;;;;;;18.60;100.00;99899.84;5180033;27;20054;-60
2023/09/24 07:08:36;;;;;;;1.00;0.90;;;;;;;18.70;100.00;99904.59;5180098;27;20060;-61
2023/09/24 07:11:21;;;;;;;4.60;1.08;;;;;;;18.27;100.00;99915.78;5179931;27;20378;-60
2023/09/24 07:13:47;;;;;;;2.22;1.60;;;;;;;18.66;100.00;99919.66;5180079;27;20046;-62
2023/09/24 07:16:14;;;;;;;2.58;1.08;;;;;;;18.38;100.00;99917.75;5179801;27;20042;-60
2023/09/24 07:18:40;;;;;;;1.30;1.20;;;;;;;18.33;100.00;99925.31;5179965;27;20113;-60
2023/09/24 07:21:06;;;;;;;1.80;1.10;;;;;;;18.37;100.00;99919.75;5179666;27;20042;-63
2023/09/24 07:23:33;;;;;;;2.00;1.20;;;;;;;18.33;100.00;99914.19;5179977;27;20053;-62
2023/09/24 07:25:59;;;;;;;1.10;1.10;;;;;;;18.09;100.00;99915.00;5179459;27;20046;-63
2023/09/24 07:28:25;;;;;;;1.15;1.05;;;;;;;18.03;100.00;99922.16;5179615;27;20521;-63
2023/09/24 07:30:52;;;;;;;1.23;1.20;;;;;;;17.97;100.00;99924.53;5179600;27;20050;-60
2023/09/24 07:33:19;;;;;;;1.33;1.20;;;;;;;17.62;100.00;99937.13;5179372;27;20054;-61
2023/09/24 07:35:45;;;;;;;1.08;1.05;;;;;;;17.65;100.00;99953.00;5179243;27;20050;-64
2023/09/24 07:38:12;;;;;;;1.27;0.98;;;;;;;17.49;100.00;99966.41;5179372;27;20050;-63
2023/09/24 07:40:39;;;;;;;1.13;0.95;;;;;;;17.70;100.00;99971.25;5179692;27;20046;-63
2023/09/24 07:43:07;;;;;;;0.80;0.80;;;;;;;17.71;100.00;99975.59;5179392;27;20077;-60
2023/09/24 07:45:32;;;;;;;2.47;1.20;;;;;;;17.65;100.00;99966.06;5179660;27;20323;-62
2023/09/24 07:47:58;;;;;;;1.85;1.00;;;;;;;17.62;100.00;99961.31;5179220;27;20054;-62
2023/09/24 07:50:24;;;;;;;1.08;0.98;;;;;;;17.75;100.00;99962.50;5179604;27;20382;-60
2023/09/24 07:52:50;;;;;;;1.40;1.00;;;;;;;17.71;100.00;99975.59;5179088;27;20133;-60
2023/09/24 07:55:16;;;;;;;1.55;1.33;;;;;;;17.80;100.00;99964.94;5179375;27;20098;-60
2023/09/24 07:57:43;;;;;;;5.97;0.90;;;;;;;17.69;100.00;99982.69;5179312;27;20136;-62
2023/09/24 08:00:09;;;;;;;1.17;1.00;;;;;;;17.67;100.00;99987.88;5179248;27;20157;-61
2023/09/24 08:02:35;;;;;;;3.17;1.20;;;;;;;17.64;100.00;100015.19;5179031;27;20061;-61
2023/09/24 08:05:01;;;;;;;1.10;1.02;;;;;;;17.76;100.00;100016.84;5179118;27;20141;-61
2023/09/24 08:07:29;;;;;;;4.10;1.65;;;;;;;17.18;100.00;99999.19;5179304;27;20137;-63
2023/09/24 08:09:56;;;;;;;6.45;1.25;;;;;;;17.34;100.00;99987.78;5178936;27;20049;-62
2023/09/24 08:12:22;;;;;;;2.67;1.60;;;;;;;17.29;100.00;99979.03;5179167;27;20056;-61
2023/09/24 08:14:48;;;;;;;5.07;1.80;;;;;;;17.31;100.00;99963.59;5178901;27;20190;-60
2023/09/24 08:17:14;;;;;;;1.55;1.10;;;;;;;17.45;100.00;99976.72;5179088;27;20070;-60
2023/09/24 08:19:40;;;;;;;4.63;1.30;;;;;;;17.34;100.00;99985.00;5178869;27;20141;-61
2023/09/24 08:22:06;;;;;;;1.70;1.30;;;;;;;17.42;100.00;100021.84;5179253;27;20129;-62
2023/09/24 08:24:32;;;;;;;2.30;1.20;;;;;;;17.32;100.00;99992.09;5179029;27;20050;-63
2023/09/24 08:26:58;;;;;;;10.98;1.40;;;;;;;17.07;100.00;99958.78;5179008;27;20105;-63
2023/09/24 08:29:30;;;;;;;6.90;1.63;;;;;;;16.97;100.00;99907.69;5178948;27;20046;-61
2023/09/24 08:31:56;;;;;;;2.15;1.48;;;;;;;16.92;100.00;99872.84;5178866;27;20102;-60
2023/09/24 08:34:23;;;;;;;3.35;1.60;;;;;;;16.53;100.00;99820.06;5178739;27;20319;-62
2023/09/24 08:36:49;;;;;;;5.28;1.60;;;;;;;16.74;100.00;99788.91;5178646;27;20086;-61
2023/09/24 08:39:15;;;;;;;8.35;2.70;;;;;;;16.67;100.00;99783.34;5178924;27;20133;-63
2023/09/24 08:41:44;;;;;;;5.15;1.70;;;;;;;16.70;100.00;99746.56;5178581;27;20137;-64
2023/09/24 08:44:14;;;;;;;6.60;1.90;;;;;;;16.91;100.00;99734.75;5178940;27;20050;-63
2023/09/24 08:46:41;;;;;;;3.85;1.58;;;;;;;16.82;100.00;99717.72;5178723;27;20102;-62
2023/09/24 08:49:08;;;;;;;5.35;2.03;;;;;;;16.77;100.00;99673.84;5182667;27;20118;-62
2023/09/24 08:51:34;;;;;;;3.08;2.03;;;;;;;16.59;100.00;99621.19;5182370;27;20058;-60
2023/09/24 08:54:01;;;;;;;6.97;2.47;;;;;;;16.40;100.00;99636.97;5182057;27;20062;-63
2023/09/24 08:56:27;;;;;;;4.95;2.03;;;;;;;16.78;100.00;99656.81;5182073;27;20388;-64
2023/09/24 08:58:54;;;;;;;4.95;2.30;;;;;;;16.96;100.00;99692.84;5181913;27;20109;-64
2023/09/24 09:01:20;;;;;;;3.50;1.98;;;;;;;16.96;100.00;99703.91;5182279;27;20050;-63
2023/09/24 09:03:47;;;;;;;5.10;1.83;;;;;;;16.94;100.00;99678.59;5181905;27;20042;-63
2023/09/24 09:06:30;;;;;;;2.30;1.90;;;;;;;16.68;100.00;99688.03;5182264;27;20064;-61
2023/09/24 09:08:56;;;;;;;2.58;2.28;;;;;;;17.18;100.00;99743.50;5181767;27;20105;-62
2023/09/24 09:11:22;;;;;;;2.92;1.55;;;;;;;17.16;100.00;99790.22;5182262;27;20042;-61
2023/09/24 09:13:49;;;;;;;6.45;2.35;;;;;;;17.73;100.00;99829.03;5181821;27;20132;-62
2023/09/24 09:16:16;;;;;;;1.67;1.58;;;;;;;17.57;100.00;99881.31;5182176;27;20082;-62
2023/09/24 09:18:42;;;;;;;2.63;2.30;;;;;;;17.46;100.00;99892.38;5181854;27;20057;-63
2023/09/24 09:21:08;;;;;;;1.83;1.73;;;;;;;17.32;100.00;99928.38;5181604;27;20447;-63
2023/09/24 09:23:37;;;;;;;1.60;1.50;;;;;;;17.52;100.00;99923.25;5181870;27;20368;-64
2023/09/24 09:26:04;;;;;;;1.80;1.70;;;;;;;17.68;100.00;99936.75;5181773;27;20190;-61
2023/09/24 09:28:31;;;;;;;2.25;2.05;;;;;;;17.69;100.00;99947.44;5181806;27;20054;-60
2023/09/24 09:30:58;;;;;;;2.45;2.25;;;;;;;17.78;100.00;99939.56;5181559;27;20152;-62
2023/09/24 09:33:25;;;;;;;2.60;1.50;;;;;;;17.48;100.00;99978.69;5181819;27;20053;-63
2023/09/24 09:35:51;;;;;;;2.15;1.92;;;;;;;17.88;100.00;99993.47;5181377;27;20050;-63
2023/09/24 09:38:17;;;;;;;6.70;1.73;;;;;;;17.72;100.00;100021.53;5181306;27;20053;-64
2023/09/24 09:40:47;;;;;;;1.55;1.30;;;;;;;17.40;100.00;100029.78;5181241;27;20145;-63
2023/09/24 09:43:19;;;;;;;2.55;1.90;;;;;;;17.62;100.00;100053.59;5181741;27;20137;-62
2023/09/24 09:45:47;;;;;;;1.98;1.75;;;;;;;17.43;100.00;100045.63;5181590;27;20053;-61
2023/09/24 09:48:15;;;;;;;3.22;1.63;;;;;;;17.47;100.00;100056.72;5181165;27;20415;-61
2023/09/24 09:50:46;;;;;;;1.67;1.58;;;;;;;17.27;100.00;100068.09;5181521;27;20042;-62
2023/09/24 09:53:19;;;;;;;1.70;1.60;;;;;;;16.89;100.00;100063.91;5181206;27;20106;-65
2023/09/24 09:55:46;;;;;;;1.95;1.75;;;;;;;16.78;100.00;100060.28;5181378;27;20142;-60
2023/09/24 09:58:12;;;;;;;2.42;1.88;;;;;;;16.78;100.00;100051.97;5180925;27;20141;-61
2023/09/24 10:00:39;;;;;;;1.70;1.60;;;;;;;17.31;100.00;100034.88;5181242;27;20047;-64
2023/09/24 10:03:06;;;;;;;1.45;1.35;;;;;;;17.44;100.00;100071.34;5180983;27;20133;-61
2023/09/24 10:05:33;;;;;;;2.30;2.10;;;;;;;18.00;100.00;100089.41;5181423;27;20046;-63
2023/09/24 10:07:59;;;;;;;2.90;1.58;;;;;;;18.18;100.00;100078.34;5180807;27;20096;-63
2023/09/24 10:10:42;;;;;;;2.28;2.08;;;;;;;17.92;100.00;100076.69;5180948;27;20050;-63
2023/09/24 10:13:43;;;;;;;1.88;1.60;;;;;;;18.17;100.00;100074.00;5181120;27;20053;-62
2023/09/24 10:16:32;;;;;;;1.90;1.75;;;;;;;17.76;100.00;100046.50;5180811;27;20054;-63
2023/09/24 10:19:00;;;;;;;3.20;2.20;;;;;;;17.47;100.00;100049.19;5181097;27;20144;-62
2023/09/24 10:21:30;;;;;;;3.15;1.88;;;;;;;17.59;100.00;100095.16;5180465;27;20046;-62
2023/09/24 10:23:57;;;;;;;3.92;1.85;;;;;;;18.27;100.00;100090.66;5180541;27;20545;-63
2023/09/24 10:26:48;;;;;;;2.40;2.20;;;;;;;18.04;100.00;100107.66;5180806;27;20065;-65
2023/09/24 10:29:15;;;;;;;3.58;2.45;;;;;;;17.70;100.00;100098.00;5180489;27;20137;-65
2023/09/24 10:32:11;;;;;;;1.85;1.75;;;;;;;17.97;100.00;100065.22;5180864;27;20046;-63
2023/09/24 10:35:09;;;;;;;1.90;1.80;;;;;;;17.73;100.00;100059.19;5171744;27;20360;-64
2023/09/24 10:37:38;;;;;;;3.42;2.20;;;;;;;17.96;100.00;100072.75;5180499;27;20293;-63
2023/09/24 10:40:05;;;;;;;1.90;1.73;;;;;;;18.22;100.00;100098.56;5180305;27;20342;-61
2023/09/24 10:42:32;;;;;;;2.13;2.00;;;;;;;18.22;100.00;100048.59;5180399;27;20042;-60
2023/09/24 10:45:26;;;;;;;2.60;2.40;;;;;;;18.44;100.00;100043.88;5180638;27;20137;-65
2023/09/24 10:47:52;;;;;;;3.33;2.03;;;;;;;18.60;100.00;99951.84;5180215;27;20054;-64
2023/09/24 10:50:19;;;;;;;1.80;1.67;;;;;;;18.76;100.00;99841.91;5180551;27;20050;-62
2023/09/24 10:52:49;;;;;;;10.30;2.03;;;;;;;18.67;100.00;99899.03;5180078;27;20137;-61
2023/09/24 10:55:15;;;;;;;3.63;1.85;;;;;;;18.98;100.00;99745.31;5180550;27;20155;-61
2023/09/24 10:57:44;;;;;;;8.30;2.22;;;;;;;19.08;100.00;99599.16;5179902;27;20057;-60
2023/09/24 11:00:15;;;;;;;1.88;1.77;;;;;;;18.74;100.00;99746.28;5180177;27;20065;-63
2023/09/24 11:02:42;;;;;;;2.75;2.10;;;;;;;19.03;100.00;99760.78;5180038;27;20046;-63
2023/09/24 11:05:08;;;;;;;2.10;1.90;;;;;;;18.26;100.00;99830.13;5179941;27;20092;-62
2023/09/24 11:07:34;;;;;;;2.85;2.10;;;;;;;18.28;100.00;99908.25;5180256;27;20374;-62
2023/09/24 11:10:01;;;;;;;3.17;2.20;;;;;;;18.38;100.00;99914.97;5179319;27;20054;-61
2023/09/24 11:12:27;;;;;;;3.03;2.58;;;;;;;17.98;100.00;99944.75;5180207;27;20042;-65
2023/09/24 11:14:53;;;;;;;2.10;2.00;;;;;;;18.16;100.00;99917.78;5179797;27;20060;-64
2023/09/24 11:17:19;;;;;;;4.18;2.50;;;;;;;18.01;100.00;99955.03;5180034;27;20076;-64
2023/09/24 11:19:47;;;;;;;2.15;2.05;;;;;;;18.00;100.00;99951.47;5179686;27;20050;-60
2023/09/24 11:22:18;;;;;;;3.40;2.53;;;;;;;18.12;100.00;99941.94;5179560;27;20137;-64